createdAt,value
2022-09-15T00:01:32.545Z,42.60
2022-09-15T00:03:59.320Z,40.97
2022-09-15T00:06:25.990Z,39.57
2022-09-15T00:08:52.568Z,34.53
2022-09-15T00:11:22.347Z,32.10
2022-09-15T00:13:49.068Z,33.73
2022-09-15T00:16:16.112Z,34.20
2022-09-15T00:18:43.415Z,29.13
2022-09-15T00:21:12.162Z,33.87
2022-09-15T00:23:38.827Z,32.73
2022-09-15T00:26:09.371Z,27.37
2022-09-15T00:28:36.037Z,28.43
2022-09-15T00:31:05.062Z,29.73
2022-09-15T00:33:31.644Z,30.37
2022-09-15T00:36:01.424Z,27.37
2022-09-15T00:38:27.973Z,27.73
2022-09-15T00:40:55.600Z,29.37
2022-09-15T00:43:41.550Z,30.80
2022-09-15T00:46:08.536Z,29.23
2022-09-15T00:48:35.868Z,30.80
2022-09-15T00:51:03.221Z,29.90
2022-09-15T00:53:30.371Z,29.33
2022-09-15T00:55:58.127Z,28.53
2022-09-15T00:58:26.846Z,27.70
2022-09-15T01:00:56.627Z,32.77
2022-09-15T01:03:23.937Z,29.90
2022-09-15T01:06:00.968Z,28.83
2022-09-15T01:08:41.043Z,33.73
2022-09-15T01:11:07.743Z,33.47
2022-09-15T01:13:35.025Z,33.73
2022-09-15T01:16:07.481Z,34.93
2022-09-15T01:18:46.423Z,36.30
2022-09-15T01:21:23.410Z,32.33
2022-09-15T01:23:50.037Z,37.00
2022-09-15T01:26:39.973Z,36.50
2022-09-15T01:29:21.794Z,37.10
2022-09-15T01:32:39.697Z,36.80
2022-09-15T01:35:15.255Z,42.57
2022-09-15T01:37:44.878Z,42.67
2022-09-15T01:40:12.542Z,42.87
2022-09-15T01:42:40.142Z,50.97
2022-09-15T01:45:08.999Z,43.63
2022-09-15T01:47:36.469Z,47.60
2022-09-15T01:50:08.296Z,52.07
2022-09-15T01:52:35.241Z,45.93
2022-09-15T01:55:03.717Z,52.97
2022-09-15T01:57:30.419Z,51.27
2022-09-15T01:59:57.027Z,53.60
2022-09-15T02:02:32.901Z,51.73
2022-09-15T02:05:02.159Z,50.37
2022-09-15T02:07:35.593Z,50.70
2022-09-15T02:10:08.180Z,52.20
2022-09-15T02:12:51.862Z,47.17
2022-09-15T02:15:25.861Z,47.13
2022-09-15T02:17:54.377Z,45.87
2022-09-15T02:20:38.926Z,46.50
2022-09-15T02:23:08.601Z,48.67
2022-09-15T02:25:40.360Z,47.00
2022-09-15T02:28:08.586Z,52.83
2022-09-15T02:30:37.987Z,49.30
2022-09-15T02:33:09.567Z,50.50
2022-09-15T02:35:36.441Z,51.00
2022-09-15T02:38:05.337Z,48.93
2022-09-15T02:40:32.723Z,52.93
2022-09-15T02:43:03.316Z,56.90
2022-09-15T02:45:31.201Z,48.93
2022-09-15T02:47:58.350Z,53.13
2022-09-15T02:50:28.735Z,52.23
2022-09-15T02:52:55.798Z,50.90
2022-09-15T02:55:22.996Z,49.27
2022-09-15T02:57:49.666Z,52.53
2022-09-15T03:00:17.572Z,53.40
2022-09-15T03:02:50.220Z,56.03
2022-09-15T03:05:17.631Z,52.00
2022-09-15T03:07:44.272Z,49.93
2022-09-15T03:10:12.123Z,55.63
2022-09-15T03:12:43.954Z,52.43
2022-09-15T03:15:12.168Z,48.87
2022-09-15T03:17:41.551Z,50.70
2022-09-15T03:20:09.675Z,51.60
2022-09-15T03:22:36.481Z,52.60
2022-09-15T03:25:05.529Z,50.93
2022-09-15T03:27:32.606Z,54.83
2022-09-15T03:29:59.344Z,50.17
2022-09-15T03:32:26.081Z,63.10
2022-09-15T03:34:57.695Z,60.17
2022-09-15T03:37:25.260Z,62.63
2022-09-15T03:39:51.963Z,67.63
2022-09-15T03:42:18.617Z,64.30
2022-09-15T03:44:45.159Z,83.60
2022-09-15T03:47:11.761Z,75.37
2022-09-15T03:49:38.660Z,79.13
2022-09-15T03:52:05.359Z,67.07
2022-09-15T03:54:31.959Z,68.27
2022-09-15T03:56:58.941Z,75.53
2022-09-15T03:59:25.691Z,60.07
2022-09-15T04:01:52.449Z,61.83
2022-09-15T04:04:19.042Z,61.13
2022-09-15T04:06:45.712Z,59.50
2022-09-15T04:09:12.323Z,58.73
2022-09-15T04:11:39.616Z,58.23
2022-09-15T04:14:06.481Z,60.23
2022-09-15T04:16:33.959Z,52.50
2022-09-15T04:19:00.914Z,54.57
2022-09-15T04:21:27.651Z,61.73
2022-09-15T04:23:54.481Z,59.10
2022-09-15T04:26:26.277Z,61.33
2022-09-15T04:28:53.136Z,60.57
2022-09-15T04:31:20.485Z,60.07
2022-09-15T04:33:47.719Z,58.53
2022-09-15T04:36:15.743Z,58.77
2022-09-15T04:38:42.605Z,63.17
2022-09-15T04:41:09.661Z,68.30
2022-09-15T04:43:36.532Z,55.07
2022-09-15T04:46:03.170Z,61.03
2022-09-15T04:48:30.346Z,56.13
2022-09-15T04:51:00.690Z,55.33
2022-09-15T04:53:27.235Z,56.30
2022-09-15T04:55:53.887Z,57.57
2022-09-15T04:58:20.802Z,58.40
2022-09-15T05:00:47.605Z,60.63
2022-09-15T05:03:14.428Z,55.73
2022-09-15T05:05:41.564Z,54.20
2022-09-15T05:08:08.318Z,57.83
2022-09-15T05:10:34.993Z,53.77
2022-09-15T05:13:01.562Z,56.20
2022-09-15T05:15:28.132Z,55.03
2022-09-15T05:17:54.724Z,46.53
2022-09-15T05:20:21.345Z,50.33
2022-09-15T05:22:48.015Z,53.57
2022-09-15T05:25:14.555Z,49.70
2022-09-15T05:27:41.267Z,48.27
2022-09-15T05:30:35.837Z,48.73
2022-09-15T05:32:54.780Z,50.07
2022-09-15T05:35:21.325Z,49.43
2022-09-15T05:37:47.960Z,49.23
2022-09-15T05:40:15.380Z,49.80
2022-09-15T05:42:42.016Z,50.63
2022-09-15T05:45:09.013Z,46.47
2022-09-15T05:47:35.762Z,50.60
2022-09-15T05:50:02.368Z,49.57
2022-09-15T05:52:28.926Z,49.97
2022-09-15T05:54:58.961Z,49.87
2022-09-15T05:57:25.982Z,51.87
2022-09-15T05:59:52.563Z,52.23
2022-09-15T06:02:19.214Z,49.47
2022-09-15T06:04:45.846Z,46.33
2022-09-15T06:07:12.582Z,47.27
2022-09-15T06:09:39.480Z,45.33
2022-09-15T06:12:06.115Z,47.60
2022-09-15T06:14:32.674Z,47.53
2022-09-15T06:16:59.268Z,47.17
2022-09-15T06:19:25.980Z,46.23
2022-09-15T06:21:56.665Z,50.00
2022-09-15T06:24:23.330Z,46.87
2022-09-15T06:26:49.867Z,47.97
2022-09-15T06:29:16.393Z,49.47
2022-09-15T06:31:43.070Z,48.60
2022-09-15T06:34:11.307Z,47.93
2022-09-15T06:36:39.150Z,49.60
2022-09-15T06:39:06.059Z,48.47
2022-09-15T06:41:58.328Z,46.97
2022-09-15T06:44:19.534Z,43.47
2022-09-15T06:46:46.164Z,45.73
2022-09-15T06:49:12.769Z,46.70
2022-09-15T06:51:39.377Z,42.60
2022-09-15T06:54:06.188Z,50.43
2022-09-15T06:56:37.224Z,45.40
2022-09-15T06:59:04.610Z,46.27
2022-09-15T07:01:31.896Z,44.97
2022-09-15T07:03:59.213Z,44.03
2022-09-15T07:06:29.718Z,43.47
2022-09-15T07:08:57.204Z,44.23
2022-09-15T07:11:24.281Z,47.63
2022-09-15T07:13:51.225Z,38.90
2022-09-15T07:16:18.999Z,40.77
2022-09-15T07:18:46.002Z,40.43
2022-09-15T07:21:14.241Z,39.30
2022-09-15T07:23:41.034Z,37.00
2022-09-15T07:26:27.865Z,38.07
2022-09-15T07:28:56.230Z,39.13
2022-09-15T07:31:24.011Z,37.57
2022-09-15T07:33:50.683Z,37.70
2022-09-15T07:36:17.307Z,38.37
2022-09-15T07:38:45.442Z,40.63
2022-09-15T07:41:13.960Z,43.50
2022-09-15T07:43:40.675Z,36.83
2022-09-15T07:46:07.290Z,39.93
2022-09-15T07:48:33.960Z,38.17
2022-09-15T07:51:00.541Z,37.27
2022-09-15T07:53:30.317Z,41.90
2022-09-15T07:55:57.211Z,36.23
2022-09-15T07:58:23.944Z,37.60
2022-09-15T08:00:50.633Z,34.13
2022-09-15T08:03:17.201Z,33.13
2022-09-15T08:05:45.789Z,33.70
2022-09-15T08:08:12.726Z,31.90
2022-09-15T08:10:42.699Z,32.97
2022-09-15T08:13:09.245Z,35.37
2022-09-15T08:15:38.905Z,30.77
2022-09-15T08:18:05.728Z,36.07
2022-09-15T08:20:32.897Z,30.43
2022-09-15T08:22:59.503Z,32.37
2022-09-15T08:25:26.059Z,31.83
2022-09-15T08:27:54.305Z,31.90
2022-09-15T08:30:21.327Z,32.10
2022-09-15T08:32:48.031Z,31.77
2022-09-15T08:35:16.012Z,33.13
2022-09-15T08:37:42.890Z,31.10
2022-09-15T08:40:16.012Z,33.20
2022-09-15T08:42:45.057Z,29.93
2022-09-15T08:45:33.023Z,35.00
2022-09-15T08:48:01.456Z,29.67
2022-09-15T08:50:31.167Z,35.40
2022-09-15T08:53:00.877Z,32.80
2022-09-15T08:55:42.917Z,29.83
2022-09-15T08:58:18.601Z,29.73
2022-09-15T09:00:49.128Z,27.77
2022-09-15T09:03:21.795Z,22.17
2022-09-15T09:06:10.915Z,26.07
2022-09-15T09:08:51.857Z,22.30
2022-09-15T09:11:48.374Z,19.23
2022-09-15T09:14:39.644Z,19.20
2022-09-15T09:17:23.708Z,19.63
2022-09-15T09:19:53.301Z,18.93
2022-09-15T09:22:26.168Z,16.80
2022-09-15T09:24:54.644Z,18.53
2022-09-15T09:27:24.003Z,19.77
2022-09-15T09:30:22.997Z,19.63
2022-09-15T09:32:54.327Z,17.83
2022-09-15T09:35:33.569Z,17.43
2022-09-15T09:38:02.443Z,17.33
2022-09-15T09:40:32.849Z,17.97
2022-09-15T09:42:59.967Z,16.67
2022-09-15T09:45:26.573Z,18.37
2022-09-15T09:47:56.369Z,14.87
2022-09-15T09:50:43.209Z,14.90
2022-09-15T09:53:21.979Z,14.10
2022-09-15T09:55:48.617Z,15.03
2022-09-15T09:58:19.428Z,14.80
2022-09-15T10:00:46.766Z,15.07
2022-09-15T10:03:23.677Z,12.13
2022-09-15T10:06:07.068Z,12.23
2022-09-15T10:08:35.196Z,13.37
2022-09-15T10:11:06.770Z,12.70
2022-09-15T10:13:34.375Z,14.73
2022-09-15T10:16:02.266Z,15.63
2022-09-15T10:18:33.624Z,14.83
2022-09-15T10:21:01.648Z,16.47
2022-09-15T10:23:29.440Z,13.80
2022-09-15T10:26:00.144Z,9.83
2022-09-15T10:28:27.594Z,11.17
2022-09-15T10:30:57.233Z,10.00
2022-09-15T10:33:25.479Z,10.23
2022-09-15T10:35:53.286Z,11.17
2022-09-15T10:38:46.285Z,7.27
2022-09-15T10:41:23.731Z,9.07
2022-09-15T10:43:58.811Z,8.03
2022-09-15T10:46:31.688Z,9.30
2022-09-15T10:49:17.006Z,10.53
2022-09-15T10:51:49.114Z,7.67
2022-09-15T10:54:27.882Z,7.40
2022-09-15T10:57:01.677Z,6.90
2022-09-15T10:59:40.680Z,7.03
2022-09-15T11:02:14.681Z,7.27
2022-09-15T11:04:47.256Z,5.13
2022-09-15T11:07:16.649Z,4.60
2022-09-15T11:09:47.442Z,15.53
2022-09-15T11:12:19.923Z,4.87
2022-09-15T11:14:55.707Z,6.47
2022-09-15T11:17:37.150Z,4.83
2022-09-15T11:20:12.650Z,6.07
2022-09-15T11:22:52.068Z,6.17
2022-09-15T11:25:27.083Z,4.73
2022-09-15T11:28:12.053Z,4.97
2022-09-15T11:30:47.775Z,5.87
2022-09-15T11:33:32.801Z,6.70
2022-09-15T11:35:59.541Z,4.37
2022-09-15T11:38:35.694Z,5.53
2022-09-15T11:41:19.085Z,4.63
2022-09-15T11:44:07.596Z,3.57
2022-09-15T11:46:54.560Z,4.00
2022-09-15T11:49:27.637Z,2.80
2022-09-15T11:51:59.001Z,7.33
2022-09-15T11:54:31.343Z,3.20
2022-09-15T11:56:58.796Z,4.83
2022-09-15T11:59:44.167Z,1.60
2022-09-15T12:02:19.800Z,3.57
2022-09-15T12:04:57.891Z,1.97
2022-09-15T12:07:28.960Z,2.73
2022-09-15T12:09:56.036Z,2.87
2022-09-15T12:12:22.990Z,2.53
2022-09-15T12:14:50.567Z,3.20
2022-09-15T12:17:23.531Z,1.57
2022-09-15T12:19:53.094Z,2.03
2022-09-15T12:22:32.028Z,1.80
2022-09-15T12:25:10.718Z,2.67
2022-09-15T12:27:37.360Z,3.63
2022-09-15T12:30:06.145Z,4.20
2022-09-15T12:32:35.928Z,3.23
2022-09-15T12:35:02.577Z,3.30
2022-09-15T12:37:34.404Z,4.67
2022-09-15T12:40:02.033Z,2.40
2022-09-15T12:42:31.300Z,5.23
2022-09-15T12:45:00.848Z,3.13
2022-09-15T12:47:28.493Z,1.70
2022-09-15T12:49:56.802Z,2.47
2022-09-15T12:52:24.054Z,3.03
2022-09-15T12:54:55.776Z,3.40
2022-09-15T12:57:24.848Z,5.97
2022-09-15T13:00:11.631Z,3.97
2022-09-15T13:02:43.983Z,2.30
2022-09-15T13:05:11.696Z,4.20
2022-09-15T13:07:57.607Z,3.57
2022-09-15T13:10:28.889Z,2.30
2022-09-15T13:13:03.794Z,5.80
2022-09-15T13:15:30.844Z,2.50
2022-09-15T13:17:58.112Z,3.07
2022-09-15T13:20:29.627Z,2.90
2022-09-15T13:22:57.022Z,4.43
2022-09-15T13:25:26.331Z,2.07
2022-09-15T13:27:54.742Z,6.77
2022-09-15T13:30:21.503Z,3.37
2022-09-15T13:32:56.196Z,2.57
2022-09-15T13:35:49.231Z,5.53
2022-09-15T13:38:29.287Z,4.10
2022-09-15T13:41:34.199Z,3.63
2022-09-15T13:44:10.230Z,3.10
2022-09-15T13:46:45.065Z,7.03
2022-09-15T13:49:39.962Z,3.83
2022-09-15T13:52:09.519Z,6.60
2022-09-15T13:54:36.372Z,4.20
2022-09-15T13:57:03.190Z,4.03
2022-09-15T13:59:31.358Z,3.30
2022-09-15T14:01:59.024Z,4.30
2022-09-15T14:04:28.307Z,5.93
2022-09-15T14:07:00.054Z,3.47
2022-09-15T14:09:27.715Z,4.63
2022-09-15T14:11:56.061Z,4.37
2022-09-15T14:14:34.420Z,3.30
2022-09-15T14:17:01.157Z,5.53
2022-09-15T14:19:33.716Z,2.00
2022-09-15T14:22:01.673Z,2.50
2022-09-15T14:24:30.202Z,2.83
2022-09-15T14:27:03.447Z,3.23
2022-09-15T14:29:30.409Z,2.87
2022-09-15T14:31:59.875Z,2.53
2022-09-15T14:34:28.436Z,2.23
2022-09-15T14:37:01.126Z,2.30
2022-09-15T14:39:27.725Z,2.30
2022-09-15T14:41:54.724Z,2.87
2022-09-15T14:47:14.024Z,3.37
2022-09-15T14:49:40.671Z,2.17
2022-09-15T14:52:16.117Z,2.47
2022-09-15T14:54:42.763Z,3.37
2022-09-15T14:57:10.401Z,3.07
2022-09-15T14:59:36.909Z,3.17
2022-09-15T15:02:10.972Z,2.83
2022-09-15T15:04:41.687Z,2.50
2022-09-15T15:07:15.021Z,4.60
2022-09-15T15:10:07.975Z,2.80
2022-09-15T15:12:36.150Z,4.50
2022-09-15T15:15:04.690Z,5.87
2022-09-15T15:17:35.634Z,4.57
2022-09-15T15:20:08.153Z,3.53
2022-09-15T15:22:34.945Z,3.93
2022-09-15T15:25:01.948Z,3.83
2022-09-15T15:27:34.375Z,4.23
2022-09-15T15:30:20.356Z,3.60
2022-09-15T15:32:47.072Z,2.93
2022-09-15T15:35:15.986Z,4.63
2022-09-15T15:37:43.402Z,3.43
2022-09-15T15:40:21.213Z,4.70
2022-09-15T15:42:55.238Z,4.13
2022-09-15T15:45:26.274Z,3.27
2022-09-15T15:47:53.378Z,2.83
2022-09-15T15:50:21.549Z,4.57
2022-09-15T15:52:49.065Z,3.70
2022-09-15T15:55:16.986Z,4.73
2022-09-15T15:57:44.146Z,5.83
2022-09-15T16:00:21.301Z,3.57
2022-09-15T16:02:49.032Z,2.70
2022-09-15T16:05:15.729Z,3.10
2022-09-15T16:07:44.517Z,1.83
2022-09-15T16:10:15.933Z,5.37
2022-09-15T16:12:42.500Z,3.83
2022-09-15T16:15:10.842Z,2.40
2022-09-15T16:17:37.581Z,2.70
2022-09-15T16:20:04.326Z,4.60
2022-09-15T16:22:30.996Z,2.37
2022-09-15T16:24:57.630Z,3.70
2022-09-15T16:27:24.686Z,4.67
2022-09-15T16:29:51.369Z,5.53
2022-09-15T16:32:19.412Z,6.43
2022-09-15T16:34:46.106Z,3.00
2022-09-15T16:37:13.020Z,5.00
2022-09-15T16:39:39.587Z,4.20
2022-09-15T16:42:06.258Z,3.47
2022-09-15T16:44:32.848Z,2.77
2022-09-15T16:46:59.484Z,4.20
2022-09-15T16:49:26.230Z,2.37
2022-09-15T16:51:53.109Z,4.07
2022-09-15T16:54:22.789Z,2.93
2022-09-15T16:56:49.399Z,5.07
2022-09-15T16:59:16.088Z,4.10
2022-09-15T17:01:42.686Z,3.87
2022-09-15T17:04:12.754Z,4.30
2022-09-15T17:06:39.340Z,6.30
2022-09-15T17:09:05.944Z,4.23
2022-09-15T17:11:32.530Z,4.83
2022-09-15T17:13:59.091Z,3.77
2022-09-15T17:16:25.727Z,3.87
2022-09-15T17:18:52.445Z,4.43
2022-09-15T17:21:19.853Z,5.30
2022-09-15T17:23:48.331Z,4.13
2022-09-15T17:26:17.095Z,3.60
2022-09-15T17:28:43.759Z,4.07
2022-09-15T17:31:15.185Z,4.77
2022-09-15T17:33:42.333Z,4.20
2022-09-15T17:36:09.131Z,3.37
2022-09-15T17:38:35.909Z,4.43
2022-09-15T17:41:02.669Z,4.43
2022-09-15T17:43:30.442Z,6.57
2022-09-15T17:45:58.084Z,3.97
2022-09-15T17:48:24.783Z,6.97
2022-09-15T17:50:52.142Z,3.47
2022-09-15T17:53:22.717Z,12.90
2022-09-15T17:55:50.292Z,2.67
2022-09-15T17:58:17.602Z,3.60
2022-09-15T18:00:44.880Z,5.93
2022-09-15T18:03:26.892Z,2.07
2022-09-15T18:05:54.713Z,6.30
2022-09-15T18:08:21.584Z,2.83
2022-09-15T18:10:48.423Z,4.67
2022-09-15T18:13:16.576Z,2.57
2022-09-15T18:15:43.678Z,3.27
2022-09-15T18:18:12.669Z,3.00
2022-09-15T18:20:39.409Z,4.20
2022-09-15T18:23:06.255Z,2.67
2022-09-15T18:25:34.564Z,2.87
2022-09-15T18:28:02.025Z,3.83
2022-09-15T18:30:31.057Z,6.27
2022-09-15T18:32:57.918Z,2.90
2022-09-15T18:35:25.112Z,3.83
2022-09-15T18:37:56.712Z,6.23
2022-09-15T18:40:23.693Z,2.90
2022-09-15T18:42:50.297Z,6.20
2022-09-15T18:45:18.143Z,2.37
2022-09-15T18:48:11.910Z,1.00
2022-09-15T18:50:41.421Z,2.93
2022-09-15T18:53:08.116Z,4.43
2022-09-15T18:55:34.911Z,4.23
2022-09-15T18:58:01.600Z,9.93
2022-09-15T19:00:28.937Z,3.60
2022-09-15T19:02:57.249Z,3.70
2022-09-15T19:05:24.212Z,4.80
2022-09-15T19:07:50.812Z,4.13
2022-09-15T19:10:17.592Z,2.40
2022-09-15T19:12:44.364Z,3.30
2022-09-15T19:15:12.245Z,6.40
2022-09-15T19:17:39.534Z,2.93
2022-09-15T19:20:07.486Z,1.97
2022-09-15T19:22:34.528Z,3.93
2022-09-15T19:25:01.425Z,3.07
2022-09-15T19:27:28.127Z,3.40
2022-09-15T19:29:54.759Z,4.53
2022-09-15T19:32:22.211Z,3.07
2022-09-15T19:34:49.095Z,2.33
2022-09-15T19:37:18.822Z,2.87
2022-09-15T19:39:46.027Z,2.73
2022-09-15T19:42:13.008Z,2.00
2022-09-15T19:44:40.599Z,6.37
2022-09-15T19:47:07.672Z,2.77
2022-09-15T19:49:34.331Z,2.20
2022-09-15T19:52:00.962Z,4.13
2022-09-15T19:54:28.536Z,4.20
2022-09-15T19:56:56.120Z,4.87
2022-09-15T19:59:26.273Z,4.07
2022-09-15T20:01:55.487Z,2.50
2022-09-15T20:04:22.100Z,3.13
2022-09-15T20:06:48.794Z,3.43
2022-09-15T20:09:15.826Z,5.17
2022-09-15T20:11:43.608Z,2.83
2022-09-15T20:14:10.246Z,3.90
2022-09-15T20:16:37.148Z,5.50
2022-09-15T20:19:04.989Z,5.10
2022-09-15T20:21:51.437Z,3.10
2022-09-15T20:24:19.038Z,5.80
2022-09-15T20:26:45.858Z,4.50
2022-09-15T20:29:12.499Z,5.50
2022-09-15T20:31:39.386Z,3.80
2022-09-15T20:34:05.937Z,3.93
2022-09-15T20:36:34.156Z,5.73
2022-09-15T20:39:01.215Z,4.70
2022-09-15T20:41:28.455Z,5.93
2022-09-15T20:43:55.222Z,4.67
2022-09-15T20:46:23.148Z,4.03
2022-09-15T20:52:38.077Z,4.80
2022-09-15T20:55:05.172Z,6.37
2022-09-15T20:57:32.036Z,3.57
2022-09-15T20:59:58.605Z,3.03
2022-09-15T21:02:25.214Z,3.17
2022-09-15T21:04:51.781Z,3.93
2022-09-15T21:07:18.299Z,2.30
2022-09-15T21:09:45.339Z,1.93
2022-09-15T21:12:11.855Z,3.87
2022-09-15T21:14:38.377Z,6.87
2022-09-15T21:17:04.930Z,2.33
2022-09-15T21:19:31.498Z,3.83
2022-09-15T21:21:58.937Z,7.47
2022-09-15T21:24:25.459Z,5.37
2022-09-15T21:27:10.394Z,4.53
2022-09-15T21:29:37.135Z,4.57
2022-09-15T21:32:03.774Z,3.47
2022-09-15T21:34:31.691Z,4.33
2022-09-15T21:36:58.232Z,5.53
2022-09-15T21:39:24.784Z,4.47
2022-09-15T21:41:51.400Z,4.47
2022-09-15T21:44:18.006Z,5.83
2022-09-15T21:46:46.903Z,6.23
2022-09-15T21:49:13.927Z,6.17
2022-09-15T21:51:40.537Z,12.57
2022-09-15T21:54:07.123Z,7.37
2022-09-15T21:56:33.710Z,4.20
2022-09-15T21:59:01.804Z,3.83
2022-09-15T22:01:29.851Z,3.33
2022-09-15T22:03:57.652Z,3.73
2022-09-15T22:06:30.277Z,4.70
2022-09-15T22:08:57.482Z,4.10
2022-09-15T22:11:24.319Z,4.83
2022-09-15T22:13:50.912Z,4.03
2022-09-15T22:16:19.069Z,7.53
2022-09-15T22:18:46.025Z,4.33
2022-09-15T22:21:17.386Z,4.87
2022-09-15T22:23:44.246Z,3.30
2022-09-15T22:26:12.041Z,4.27
2022-09-15T22:28:38.764Z,12.97
2022-09-15T22:31:08.021Z,3.90
2022-09-15T22:33:35.003Z,5.53
2022-09-15T22:36:01.608Z,5.43
2022-09-15T22:38:29.551Z,7.93
2022-09-15T22:40:56.567Z,4.37
2022-09-15T22:43:23.179Z,6.47
2022-09-15T22:45:49.907Z,5.30
2022-09-15T22:48:16.529Z,9.23
2022-09-15T22:50:46.245Z,7.77
2022-09-15T22:53:13.205Z,4.77
2022-09-15T22:55:39.941Z,5.10
2022-09-15T22:58:06.594Z,4.57
2022-09-15T23:00:33.415Z,4.43
2022-09-15T23:03:00.249Z,4.73
2022-09-15T23:05:26.858Z,2.87
2022-09-15T23:07:53.518Z,6.43
2022-09-15T23:10:20.085Z,8.20
2022-09-15T23:12:46.669Z,5.00
2022-09-15T23:15:13.225Z,4.17
2022-09-15T23:17:39.827Z,6.73
2022-09-15T23:20:06.440Z,7.30
2022-09-15T23:22:33.009Z,6.93
2022-09-15T23:24:59.534Z,4.90
2022-09-15T23:27:26.100Z,5.60
2022-09-15T23:29:52.742Z,7.63
2022-09-15T23:32:19.378Z,5.67
2022-09-15T23:34:46.046Z,5.20
2022-09-15T23:37:12.610Z,6.27
2022-09-15T23:39:39.148Z,11.07
2022-09-15T23:42:05.843Z,5.67
2022-09-15T23:44:32.385Z,4.23
2022-09-15T23:46:58.998Z,5.73
2022-09-15T23:49:25.604Z,4.53
2022-09-15T23:51:52.190Z,5.83
2022-09-15T23:54:18.779Z,8.33
2022-09-15T23:56:45.349Z,5.90
